Time;durP1;ratioP1;P1;durP2;ratioP2;P2;SDS_P1;SDS_P2;PMS_P1;PMS_P2;Temp;Humidity;BMP_temperature;BMP_pressure;BME280_temperature;BME280_humidity;BME280_pressure;Samples;Min_cycle;Max_cycle;Signal;HPM_P1;HPM_P2
2023/12/16 00:01:03;;;;;;;1.60;1.20;;;7.70;98.20;;;;;;5067214;28;20555;-84
2023/12/16 00:03:30;;;;;;;1.60;1.20;;;7.70;98.20;;;;;;5079498;28;20473;-85
2023/12/16 00:05:59;;;;;;;1.60;1.20;;;7.70;98.20;;;;;;5061751;28;20456;-83
2023/12/16 00:08:26;;;;;;;1.60;1.20;;;7.70;98.20;;;;;;5065102;28;20450;-85
2023/12/16 00:10:53;;;;;;;1.60;1.30;;;7.70;98.20;;;;;;5067992;28;20489;-85
2023/12/16 00:13:21;;;;;;;1.60;1.20;;;7.70;98.20;;;;;;5071967;28;20477;-85
2023/12/16 00:15:48;;;;;;;1.60;1.20;;;7.70;98.20;;;;;;5070902;28;20779;-85
2023/12/16 00:18:15;;;;;;;1.60;1.20;;;7.70;98.20;;;;;;5075651;28;20472;-83
2023/12/16 00:20:42;;;;;;;1.60;1.20;;;7.70;98.20;;;;;;5067467;28;20493;-83
2023/12/16 00:23:08;;;;;;;1.70;1.30;;;7.70;98.20;;;;;;5049035;28;20514;-83
2023/12/16 00:25:36;;;;;;;1.70;1.50;;;7.70;98.20;;;;;;5069176;28;20630;-83
2023/12/16 00:28:02;;;;;;;1.60;1.20;;;7.70;98.20;;;;;;5052872;28;20470;-83
2023/12/16 00:30:31;;;;;;;1.60;1.20;;;7.70;98.20;;;;;;5070123;28;20891;-84
2023/12/16 00:32:58;;;;;;;1.60;1.27;;;7.70;98.20;;;;;;5056295;28;20565;-83
2023/12/16 00:35:26;;;;;;;1.60;1.20;;;7.70;98.20;;;;;;5069219;28;20481;-84
2023/12/16 00:37:52;;;;;;;1.60;1.20;;;7.70;98.20;;;;;;5058642;28;20482;-83
2023/12/16 00:40:22;;;;;;;1.70;1.50;;;7.70;98.20;;;;;;5068488;28;20461;-85
2023/12/16 00:42:49;;;;;;;1.67;1.20;;;7.70;98.20;;;;;;5066375;28;20485;-83
2023/12/16 00:45:16;;;;;;;1.60;1.20;;;7.70;98.20;;;;;;5076650;28;20544;-83
2023/12/16 00:50:13;;;;;;;1.60;1.30;;;7.70;98.20;;;;;;5095434;28;20495;-82
2023/12/16 00:52:39;;;;;;;1.60;1.20;;;7.70;98.20;;;;;;5083467;28;20492;-82
2023/12/16 00:55:07;;;;;;;1.70;1.30;;;7.70;98.20;;;;;;5092825;28;20511;-81
2023/12/16 00:57:34;;;;;;;1.63;1.23;;;7.70;98.20;;;;;;5083708;28;20762;-82
2023/12/16 01:00:01;;;;;;;1.70;1.30;;;7.70;98.20;;;;;;5079276;28;20487;-81
2023/12/16 01:02:28;;;;;;;1.60;1.20;;;7.70;98.20;;;;;;5081608;28;20579;-83
2023/12/16 01:04:55;;;;;;;1.67;1.30;;;7.70;98.20;;;;;;5085429;28;20975;-83
2023/12/16 01:07:23;;;;;;;1.60;1.20;;;7.60;98.20;;;;;;5074505;28;20474;-85
2023/12/16 01:09:51;;;;;;;1.67;1.30;;;7.60;98.20;;;;;;5085841;28;20480;-84
2023/12/16 01:12:18;;;;;;;1.60;1.20;;;7.60;98.20;;;;;;5068870;28;20477;-84
2023/12/16 01:14:45;;;;;;;1.60;1.20;;;7.60;98.20;;;;;;5078103;28;20488;-84
2023/12/16 01:17:12;;;;;;;1.60;1.20;;;7.60;98.20;;;;;;5063816;28;20470;-83
2023/12/16 01:19:39;;;;;;;1.63;1.20;;;7.60;98.20;;;;;;5082534;28;20480;-83
2023/12/16 01:22:06;;;;;;;1.60;1.20;;;7.60;98.20;;;;;;5066477;28;20556;-83
2023/12/16 01:24:36;;;;;;;1.63;1.30;;;7.60;98.20;;;;;;5075620;28;20480;-84
2023/12/16 01:27:04;;;;;;;1.60;1.30;;;7.60;98.20;;;;;;5065669;28;20485;-84
2023/12/16 01:29:31;;;;;;;1.60;1.20;;;7.60;98.20;;;;;;5080662;28;20476;-83
2023/12/16 01:31:57;;;;;;;1.60;1.20;;;7.60;98.20;;;;;;5066059;28;20540;-83
2023/12/16 01:34:24;;;;;;;1.67;1.30;;;7.60;98.20;;;;;;5078862;28;20489;-84
2023/12/16 01:36:51;;;;;;;1.70;1.40;;;7.60;98.20;;;;;;5067633;28;20508;-83
2023/12/16 01:39:18;;;;;;;1.60;1.20;;;7.60;98.20;;;;;;5078822;28;20976;-85
2023/12/16 01:41:46;;;;;;;1.67;1.30;;;7.60;98.20;;;;;;5072574;28;20476;-86
2023/12/16 01:44:12;;;;;;;1.60;1.20;;;7.60;98.20;;;;;;5082718;28;20465;-84
2023/12/16 01:46:40;;;;;;;1.60;1.20;;;7.60;98.20;;;;;;5074043;28;21192;-85
2023/12/16 01:49:06;;;;;;;1.60;1.30;;;7.60;98.20;;;;;;5083758;28;20493;-84
2023/12/16 01:51:33;;;;;;;1.60;1.27;;;7.60;98.20;;;;;;5076482;28;21351;-83
2023/12/16 01:54:01;;;;;;;1.60;1.20;;;7.60;98.20;;;;;;5078222;28;20526;-84
2023/12/16 01:56:28;;;;;;;1.60;1.20;;;7.60;98.20;;;;;;5074070;28;20472;-85
2023/12/16 01:58:57;;;;;;;1.60;1.30;;;7.60;98.20;;;;;;5079293;28;20481;-84
2023/12/16 02:01:24;;;;;;;1.60;1.30;;;7.60;98.20;;;;;;5073837;28;20554;-85
2023/12/16 02:03:52;;;;;;;1.63;1.30;;;7.60;98.20;;;;;;5080445;28;20719;-83
2023/12/16 02:06:20;;;;;;;1.60;1.20;;;7.60;98.20;;;;;;5077166;28;20493;-83
2023/12/16 02:08:47;;;;;;;1.63;1.20;;;7.60;98.20;;;;;;5078134;28;20494;-83
2023/12/16 02:11:13;;;;;;;1.70;1.37;;;7.60;98.20;;;;;;5073272;28;20634;-83
2023/12/16 02:13:42;;;;;;;1.60;1.30;;;7.50;98.20;;;;;;5087720;28;20557;-83
2023/12/16 02:16:10;;;;;;;1.60;1.20;;;7.60;98.20;;;;;;5082250;28;20492;-83
2023/12/16 02:18:37;;;;;;;1.60;1.20;;;7.60;98.20;;;;;;5082947;28;20551;-84
2023/12/16 02:21:04;;;;;;;1.60;1.27;;;7.50;98.20;;;;;;5074999;28;20456;-84
2023/12/16 02:23:33;;;;;;;1.63;1.33;;;7.50;98.20;;;;;;5080321;28;20465;-84
2023/12/16 02:26:00;;;;;;;1.60;1.20;;;7.50;98.20;;;;;;5069824;28;20466;-85
2023/12/16 02:28:27;;;;;;;1.60;1.20;;;7.50;98.20;;;;;;5077886;28;20547;-86
2023/12/16 02:30:53;;;;;;;1.60;1.20;;;7.50;98.20;;;;;;5065377;28;20550;-85
2023/12/16 02:33:20;;;;;;;1.60;1.20;;;7.50;98.20;;;;;;5071926;28;20465;-86
2023/12/16 02:35:47;;;;;;;1.60;1.30;;;7.50;98.20;;;;;;5062544;28;20528;-85
2023/12/16 02:38:14;;;;;;;1.63;1.27;;;7.50;98.20;;;;;;5077580;28;20516;-85
2023/12/16 02:40:43;;;;;;;1.60;1.20;;;7.50;98.20;;;;;;5079323;28;20531;-84
2023/12/16 02:43:10;;;;;;;1.63;1.20;;;7.50;98.20;;;;;;5075053;28;20492;-84
2023/12/16 02:45:36;;;;;;;1.60;1.20;;;7.50;98.20;;;;;;5078555;28;20483;-87
2023/12/16 02:48:04;;;;;;;1.60;1.20;;;7.50;98.20;;;;;;5069892;28;20561;-83
2023/12/16 02:50:30;;;;;;;1.60;1.20;;;7.50;98.20;;;;;;5076937;28;20458;-83
2023/12/16 02:52:57;;;;;;;1.60;1.20;;;7.50;98.20;;;;;;5049311;28;20486;-84
2023/12/16 02:55:24;;;;;;;1.60;1.20;;;7.50;98.20;;;;;;5077796;28;20477;-86
2023/12/16 02:57:53;;;;;;;1.60;1.20;;;7.50;98.20;;;;;;5062540;28;20572;-87
2023/12/16 03:00:20;;;;;;;1.60;1.20;;;7.50;98.20;;;;;;5073125;28;20462;-85
2023/12/16 03:02:47;;;;;;;1.67;1.30;;;7.50;98.20;;;;;;5063725;28;20567;-86
2023/12/16 03:05:14;;;;;;;1.60;1.10;;;7.50;98.20;;;;;;5082702;28;20623;-85
2023/12/16 03:07:40;;;;;;;1.67;1.33;;;7.50;98.20;;;;;;5071094;28;20598;-87
2023/12/16 03:10:10;;;;;;;1.60;1.20;;;7.50;98.20;;;;;;5078333;28;20481;-87
2023/12/16 03:12:38;;;;;;;1.60;1.20;;;7.50;98.20;;;;;;5073787;28;20469;-86
2023/12/16 03:15:07;;;;;;;1.60;1.20;;;7.50;98.20;;;;;;5081577;28;20578;-84
2023/12/16 03:17:34;;;;;;;1.60;1.20;;;7.40;98.20;;;;;;5075170;28;20477;-86
2023/12/16 03:20:02;;;;;;;1.60;1.20;;;7.50;98.20;;;;;;5079751;28;20572;-86
2023/12/16 03:22:29;;;;;;;1.60;1.30;;;7.40;98.20;;;;;;5069224;28;20473;-85
2023/12/16 03:24:55;;;;;;;1.63;1.30;;;7.40;98.20;;;;;;5077864;28;20552;-84
2023/12/16 03:27:22;;;;;;;1.63;1.27;;;7.40;98.20;;;;;;5065139;28;20477;-84
2023/12/16 03:29:49;;;;;;;1.60;1.30;;;7.40;98.20;;;;;;5071557;28;20489;-85
2023/12/16 03:32:19;;;;;;;1.60;1.20;;;7.40;98.20;;;;;;5069725;28;20509;-87
2023/12/16 03:34:46;;;;;;;1.60;1.20;;;7.40;98.20;;;;;;5079979;28;20523;-86
2023/12/16 03:37:14;;;;;;;1.63;1.30;;;7.40;98.20;;;;;;5070276;28;20496;-86
2023/12/16 03:39:41;;;;;;;2.37;2.17;;;7.40;98.20;;;;;;5075901;28;20481;-87
2023/12/16 03:42:07;;;;;;;1.70;1.50;;;7.40;98.20;;;;;;5069423;28;20688;-84
2023/12/16 03:44:35;;;;;;;1.60;1.20;;;7.40;98.20;;;;;;5078566;28;20541;-85
2023/12/16 03:47:01;;;;;;;1.70;1.30;;;7.40;98.20;;;;;;5065983;28;20644;-86
2023/12/16 03:49:30;;;;;;;1.70;1.40;;;7.40;98.20;;;;;;5069977;28;20513;-87
2023/12/16 03:51:57;;;;;;;1.60;1.20;;;7.40;98.20;;;;;;5065942;28;20563;-86
2023/12/16 03:54:24;;;;;;;1.63;1.20;;;7.40;98.20;;;;;;5080939;28;20524;-87
2023/12/16 03:56:50;;;;;;;1.63;1.30;;;7.40;98.20;;;;;;5069292;28;20492;-86
2023/12/16 03:59:17;;;;;;;1.60;1.20;;;7.40;98.20;;;;;;5078977;28;20495;-85
2023/12/16 04:01:45;;;;;;;1.60;1.20;;;7.40;98.20;;;;;;5069186;28;20480;-88
2023/12/16 04:04:12;;;;;;;1.60;1.20;;;7.40;98.20;;;;;;5080523;28;20464;-86
2023/12/16 04:06:44;;;;;;;1.60;1.20;;;7.40;98.20;;;;;;5069540;28;20505;-86
2023/12/16 04:09:11;;;;;;;1.63;1.30;;;7.40;98.20;;;;;;5081104;28;20733;-86
2023/12/16 04:11:46;;;;;;;1.60;1.23;;;7.40;98.20;;;;;;5062234;28;20481;-86
2023/12/16 04:14:15;;;;;;;1.60;1.20;;;7.40;98.20;;;;;;5078237;28;20544;-85
2023/12/16 04:16:42;;;;;;;1.63;1.30;;;7.40;98.20;;;;;;5069587;28;20523;-85
2023/12/16 04:19:09;;;;;;;1.67;1.30;;;7.40;98.20;;;;;;5079784;28;20527;-87
2023/12/16 04:21:37;;;;;;;1.60;1.30;;;7.40;98.20;;;;;;5069894;28;20572;-86
2023/12/16 04:24:05;;;;;;;1.60;1.20;;;7.40;98.20;;;;;;5081725;28;20470;-87
2023/12/16 04:26:32;;;;;;;1.60;1.20;;;7.40;98.20;;;;;;5069168;28;20714;-85
2023/12/16 04:28:59;;;;;;;1.67;1.40;;;7.40;98.20;;;;;;5075640;28;20481;-86
2023/12/16 04:31:26;;;;;;;1.67;1.27;;;7.40;98.20;;;;;;5068646;28;20480;-86
2023/12/16 04:33:55;;;;;;;1.63;1.20;;;7.40;98.20;;;;;;5077816;28;20884;-85
2023/12/16 04:36:22;;;;;;;1.63;1.27;;;7.40;98.20;;;;;;5068856;28;20478;-87
2023/12/16 04:38:48;;;;;;;1.70;1.30;;;7.40;98.20;;;;;;5077630;28;20486;-84
2023/12/16 04:41:17;;;;;;;1.70;1.47;;;7.40;98.20;;;;;;5067733;28;20479;-87
2023/12/16 04:43:47;;;;;;;1.60;1.20;;;7.40;98.20;;;;;;5070492;28;20557;-86
2023/12/16 04:46:14;;;;;;;1.60;1.27;;;7.40;98.20;;;;;;5065709;28;20500;-87
2023/12/16 04:48:41;;;;;;;1.60;1.40;;;7.40;98.20;;;;;;5074960;28;20513;-86
2023/12/16 04:51:08;;;;;;;1.70;1.40;;;7.40;98.20;;;;;;5069465;28;20634;-85
2023/12/16 04:53:35;;;;;;;1.70;1.30;;;7.40;98.20;;;;;;5080083;28;20488;-86
2023/12/16 04:56:02;;;;;;;1.60;1.30;;;7.40;98.20;;;;;;5068295;28;20473;-86
2023/12/16 04:58:30;;;;;;;1.67;1.30;;;7.50;98.20;;;;;;5078277;28;20531;-86
2023/12/16 05:00:58;;;;;;;1.63;1.30;;;7.40;98.20;;;;;;5068981;28;20548;-86
2023/12/16 05:03:25;;;;;;;1.70;1.37;;;7.40;98.20;;;;;;5075104;28;20457;-85
2023/12/16 05:05:52;;;;;;;1.67;1.20;;;7.40;98.20;;;;;;5064850;28;20465;-86
2023/12/16 05:08:22;;;;;;;1.60;1.30;;;7.40;98.20;;;;;;5077816;28;20513;-85
2023/12/16 05:10:49;;;;;;;1.70;1.30;;;7.40;98.20;;;;;;5067779;28;20465;-87
2023/12/16 05:13:16;;;;;;;1.63;1.30;;;7.40;98.20;;;;;;5078893;28;20490;-85
2023/12/16 05:15:44;;;;;;;1.60;1.20;;;7.40;98.20;;;;;;5078067;28;20547;-84
2023/12/16 05:18:11;;;;;;;1.63;1.20;;;7.40;98.20;;;;;;5065004;28;20489;-85
2023/12/16 05:20:38;;;;;;;1.60;1.20;;;7.40;98.20;;;;;;5073228;28;20847;-85
2023/12/16 05:23:05;;;;;;;1.60;1.20;;;7.40;98.20;;;;;;5070129;28;21012;-84
2023/12/16 05:25:32;;;;;;;1.70;1.40;;;7.40;98.20;;;;;;5078130;28;20470;-84
2023/12/16 05:27:59;;;;;;;1.60;1.20;;;7.40;98.20;;;;;;5064949;28;20575;-84
2023/12/16 05:30:26;;;;;;;1.60;1.20;;;7.50;98.20;;;;;;5077329;28;20536;-85
2023/12/16 05:32:54;;;;;;;1.70;1.30;;;7.50;98.20;;;;;;5062251;28;21720;-84
2023/12/16 05:35:21;;;;;;;1.60;1.20;;;7.50;98.20;;;;;;5072423;28;20999;-84
2023/12/16 05:37:48;;;;;;;1.60;1.20;;;7.50;98.20;;;;;;5066741;28;20486;-85
2023/12/16 05:40:15;;;;;;;1.60;1.20;;;7.40;98.20;;;;;;5079941;28;20481;-85
2023/12/16 05:42:42;;;;;;;1.60;1.20;;;7.50;98.20;;;;;;5068831;28;20488;-84
2023/12/16 05:45:09;;;;;;;1.60;1.20;;;7.50;98.20;;;;;;5078363;28;20454;-84
2023/12/16 05:47:44;;;;;;;1.67;1.20;;;7.50;98.20;;;;;;5110442;27;20562;-85
2023/12/16 05:50:11;;;;;;;1.63;1.30;;;7.50;98.20;;;;;;5061971;28;20470;-85
2023/12/16 05:52:38;;;;;;;1.63;1.20;;;7.50;98.20;;;;;;5069123;28;20476;-85
2023/12/16 05:55:06;;;;;;;1.60;1.20;;;7.50;98.20;;;;;;5056615;28;20495;-85
2023/12/16 05:57:33;;;;;;;1.60;1.30;;;7.50;98.20;;;;;;5064396;28;20482;-85
2023/12/16 05:59:59;;;;;;;1.60;1.20;;;7.50;98.20;;;;;;5058230;28;20645;-84
2023/12/16 06:02:26;;;;;;;1.60;1.20;;;7.50;98.20;;;;;;5067269;28;20473;-85
2023/12/16 06:04:56;;;;;;;1.60;1.20;;;7.50;98.20;;;;;;5072461;28;20472;-84
2023/12/16 06:07:22;;;;;;;1.60;1.33;;;7.50;98.20;;;;;;5059889;28;20482;-85
2023/12/16 06:09:49;;;;;;;1.67;1.20;;;7.50;98.20;;;;;;5051340;28;20486;-84
2023/12/16 06:12:18;;;;;;;1.67;1.30;;;7.50;98.20;;;;;;5058364;28;20472;-85
2023/12/16 06:14:44;;;;;;;1.60;1.20;;;7.50;98.20;;;;;;5056274;28;20697;-85
2023/12/16 06:17:11;;;;;;;1.60;1.20;;;7.50;98.20;;;;;;5055360;28;20518;-82
2023/12/16 06:19:38;;;;;;;1.60;1.23;;;7.60;98.20;;;;;;5056939;28;20485;-84
2023/12/16 06:22:06;;;;;;;1.60;1.30;;;7.50;98.20;;;;;;5051039;28;21002;-81
2023/12/16 06:24:33;;;;;;;1.67;1.40;;;7.60;98.20;;;;;;5051497;28;21002;-82
2023/12/16 06:27:02;;;;;;;1.60;1.30;;;7.60;98.20;;;;;;5045758;28;20470;-80
2023/12/16 06:29:30;;;;;;;1.67;1.30;;;7.60;98.20;;;;;;5054587;28;20482;-81
2023/12/16 06:31:57;;;;;;;1.60;1.20;;;7.50;98.20;;;;;;5046298;28;20557;-80
2023/12/16 06:34:24;;;;;;;1.60;1.20;;;7.60;98.20;;;;;;5053350;28;20469;-81
2023/12/16 06:36:50;;;;;;;1.70;1.20;;;7.60;98.20;;;;;;5047494;28;20474;-79
2023/12/16 06:39:19;;;;;;;1.70;1.30;;;7.50;98.20;;;;;;5053700;28;20491;-83
2023/12/16 06:41:45;;;;;;;1.60;1.20;;;7.50;98.20;;;;;;5036934;28;20606;-83
2023/12/16 06:44:12;;;;;;;1.60;1.20;;;7.60;98.20;;;;;;5045001;28;20473;-83
2023/12/16 06:46:39;;;;;;;1.60;1.30;;;7.60;98.20;;;;;;5035898;28;20581;-79
2023/12/16 06:49:06;;;;;;;1.67;1.30;;;7.60;98.20;;;;;;5043506;28;20599;-82
2023/12/16 06:51:33;;;;;;;1.60;1.20;;;7.60;98.20;;;;;;5045025;28;20476;-82
2023/12/16 06:54:00;;;;;;;1.60;1.20;;;7.60;98.20;;;;;;5061112;28;20544;-82
2023/12/16 06:56:28;;;;;;;1.60;1.20;;;7.60;98.20;;;;;;5045890;28;20566;-79
2023/12/16 06:58:55;;;;;;;1.60;1.20;;;7.60;98.20;;;;;;5044609;28;20629;-82
2023/12/16 07:01:23;;;;;;;1.63;1.30;;;7.60;98.20;;;;;;5028970;28;20565;-82
2023/12/16 07:03:50;;;;;;;1.60;1.20;;;7.60;98.20;;;;;;5040797;28;20464;-82
2023/12/16 07:06:20;;;;;;;1.60;1.20;;;7.60;98.20;;;;;;5031397;28;20501;-82
2023/12/16 07:08:47;;;;;;;1.63;1.20;;;7.60;98.20;;;;;;5047450;28;20582;-83
2023/12/16 07:11:20;;;;;;;1.60;1.30;;;7.60;98.20;;;;;;5026509;28;20471;-83
2023/12/16 07:13:49;;;;;;;1.70;1.30;;;7.60;98.20;;;;;;5029424;28;20463;-82
2023/12/16 07:16:16;;;;;;;1.60;1.20;;;7.60;98.20;;;;;;5028380;28;20470;-82
2023/12/16 07:18:43;;;;;;;1.63;1.30;;;7.60;98.20;;;;;;5047229;28;20485;-82
2023/12/16 07:21:10;;;;;;;1.60;1.20;;;7.60;98.20;;;;;;5027434;28;20878;-82
2023/12/16 07:23:37;;;;;;;1.60;1.20;;;7.60;98.20;;;;;;5033154;28;20548;-84
2023/12/16 07:26:04;;;;;;;1.70;1.40;;;7.60;98.20;;;;;;5041942;28;20537;-84
2023/12/16 07:28:33;;;;;;;1.63;1.20;;;7.60;98.20;;;;;;5060175;28;20495;-84
2023/12/16 07:31:01;;;;;;;1.60;1.20;;;7.60;98.20;;;;;;5040340;28;20464;-84
2023/12/16 07:33:28;;;;;;;1.60;1.20;;;7.50;98.20;;;;;;5053903;28;20466;-82
2023/12/16 07:35:55;;;;;;;1.63;1.30;;;7.50;98.20;;;;;;5031158;28;21020;-82
2023/12/16 07:38:22;;;;;;;1.60;1.20;;;7.50;98.20;;;;;;5048123;28;20480;-82
2023/12/16 07:40:49;;;;;;;1.63;1.20;;;7.50;98.20;;;;;;5031023;28;20467;-82
2023/12/16 07:43:15;;;;;;;1.60;1.20;;;7.40;98.20;;;;;;5048551;28;21050;-82
2023/12/16 07:45:42;;;;;;;1.63;1.20;;;7.40;98.20;;;;;;5043820;28;20476;-84
2023/12/16 07:48:12;;;;;;;1.63;1.20;;;7.30;98.20;;;;;;5045947;28;20509;-81
2023/12/16 07:50:39;;;;;;;1.70;1.40;;;7.30;98.20;;;;;;5045973;28;20500;-84
2023/12/16 07:53:06;;;;;;;1.60;1.30;;;7.30;98.20;;;;;;5039984;28;20574;-83
2023/12/16 07:55:33;;;;;;;1.60;1.23;;;7.30;98.20;;;;;;5038787;28;20962;-82
2023/12/16 07:58:00;;;;;;;1.67;1.27;;;7.20;98.20;;;;;;5043748;28;20474;-81
2023/12/16 08:00:28;;;;;;;1.67;1.20;;;7.20;98.20;;;;;;5042837;28;20467;-84
2023/12/16 08:02:55;;;;;;;1.60;1.30;;;7.20;98.20;;;;;;5044415;28;20518;-82
2023/12/16 08:08:06;;;;;;;1.60;1.27;;;7.20;98.20;;;;;;4957543;23;20550;-84
2023/12/16 08:10:34;;;;;;;1.60;1.20;;;7.20;98.20;;;;;;4963521;28;20470;-84
2023/12/16 08:13:01;;;;;;;1.63;1.30;;;7.20;98.20;;;;;;4936832;28;20539;-84
2023/12/16 08:15:28;;;;;;;1.63;1.20;;;7.20;98.20;;;;;;4945183;29;20498;-82
2023/12/16 08:17:55;;;;;;;1.70;1.40;;;7.10;98.20;;;;;;4978149;28;20515;-82
2023/12/16 08:20:22;;;;;;;1.60;1.20;;;7.10;98.20;;;;;;4965915;28;20474;-84
2023/12/16 08:22:48;;;;;;;1.63;1.30;;;7.10;98.20;;;;;;4966596;28;20573;-83
2023/12/16 08:25:17;;;;;;;1.60;1.20;;;7.10;98.20;;;;;;4964177;28;20957;-83
2023/12/16 08:27:44;;;;;;;1.67;1.30;;;7.10;98.20;;;;;;4982082;28;20560;-84
2023/12/16 08:30:13;;;;;;;1.70;1.40;;;7.00;98.20;;;;;;4969323;28;20473;-85
2023/12/16 08:35:17;;;;;;;1.60;1.30;;;7.00;98.20;;;;;;5259892;23;20525;-84
2023/12/16 08:37:44;;;;;;;1.67;1.30;;;7.00;98.20;;;;;;4988038;28;20508;-82
2023/12/16 08:40:12;;;;;;;1.67;1.30;;;7.00;98.20;;;;;;4988277;28;20492;-85
2023/12/16 08:42:42;;;;;;;1.60;1.20;;;7.00;98.20;;;;;;4986325;28;20955;-84
2023/12/16 08:45:13;;;;;;;1.70;1.30;;;7.00;98.20;;;;;;4982914;28;20548;-82
2023/12/16 08:47:40;;;;;;;1.70;1.30;;;7.10;98.20;;;;;;4979736;28;20938;-83
2023/12/16 08:50:08;;;;;;;1.63;1.30;;;7.20;98.20;;;;;;4976772;28;20461;-82
2023/12/16 08:52:36;;;;;;;1.63;1.27;;;7.20;98.20;;;;;;4974173;28;20514;-83
2023/12/16 08:55:05;;;;;;;1.70;1.30;;;7.30;98.20;;;;;;4983068;28;20582;-83
2023/12/16 08:57:34;;;;;;;1.70;1.30;;;7.40;98.20;;;;;;4986411;28;20699;-83
2023/12/16 09:00:11;;;;;;;1.60;1.20;;;7.50;98.20;;;;;;4984096;28;20486;-85
2023/12/16 09:02:41;;;;;;;1.67;1.20;;;7.60;98.20;;;;;;4990283;28;20492;-82
2023/12/16 09:05:10;;;;;;;1.60;1.20;;;7.70;98.20;;;;;;4982315;28;20477;-81
2023/12/16 09:07:40;;;;;;;1.70;1.30;;;7.70;98.20;;;;;;4986610;28;21073;-82
2023/12/16 09:10:08;;;;;;;1.67;1.40;;;7.90;98.20;;;;;;4986713;28;20470;-83
2023/12/16 09:15:53;;;;;;;1.63;1.20;;;8.10;98.20;;;;;;4983896;28;20500;-81
2023/12/16 09:18:21;;;;;;;1.60;1.20;;;8.10;98.20;;;;;;4968287;28;20481;-83
2023/12/16 09:23:25;;;;;;;1.60;1.23;;;8.20;98.20;;;;;;5089800;23;20493;-82
2023/12/16 09:29:05;;;;;;;1.63;1.20;;;8.30;98.20;;;;;;4981422;28;20475;-84
2023/12/16 09:31:33;;;;;;;1.60;1.20;;;8.30;98.20;;;;;;4987040;28;20473;-82
2023/12/16 09:36:36;;;;;;;1.60;1.20;;;8.40;98.20;;;;;;5238444;23;20571;-82
2023/12/16 09:42:36;;;;;;;1.67;1.30;;;8.40;98.20;;;;;;5413978;23;20611;-81
2023/12/16 09:47:40;;;;;;;1.60;1.30;;;8.50;98.20;;;;;;5241281;23;20571;-82
2023/12/16 09:50:12;;;;;;;1.60;1.20;;;8.50;98.20;;;;;;4981687;28;20528;-81
2023/12/16 09:53:06;;;;;;;1.60;1.10;;;8.50;98.20;;;;;;4982998;28;20485;-81
2023/12/16 09:55:35;;;;;;;1.70;1.30;;;8.60;98.20;;;;;;4978103;28;20862;-81
2023/12/16 09:58:04;;;;;;;1.60;1.30;;;8.60;98.20;;;;;;4971459;28;20500;-84
2023/12/16 10:00:32;;;;;;;1.67;1.30;;;8.70;98.20;;;;;;4983759;28;20480;-82
2023/12/16 10:03:02;;;;;;;1.70;1.40;;;8.70;98.20;;;;;;4985455;28;20481;-81
2023/12/16 10:05:37;;;;;;;1.67;1.30;;;8.80;98.20;;;;;;4978720;28;20549;-83
2023/12/16 10:08:05;;;;;;;1.63;1.20;;;8.90;98.20;;;;;;4981566;28;20484;-83
2023/12/16 10:10:34;;;;;;;1.60;1.20;;;9.00;98.20;;;;;;4978429;28;20501;-85
2023/12/16 10:18:34;;;;;;;1.70;1.37;;;9.10;98.20;;;;;;4955736;28;20534;-82
2023/12/16 10:21:08;;;;;;;1.60;1.10;;;9.20;98.20;;;;;;4950190;28;20590;-81
2023/12/16 10:23:40;;;;;;;1.70;1.17;;;9.20;98.20;;;;;;4968467;28;20483;-83
2023/12/16 10:26:11;;;;;;;1.70;1.20;;;9.20;98.20;;;;;;4951736;28;20475;-82
2023/12/16 10:28:40;;;;;;;1.70;1.30;;;9.20;98.20;;;;;;4965129;28;20557;-82
2023/12/16 10:31:07;;;;;;;1.60;1.20;;;9.30;98.20;;;;;;4947580;28;20479;-82
2023/12/16 10:33:45;;;;;;;1.60;1.10;;;9.30;98.20;;;;;;4969986;28;20462;-83
2023/12/16 10:36:12;;;;;;;1.60;1.20;;;9.40;98.20;;;;;;4955444;28;20466;-83
2023/12/16 10:38:42;;;;;;;3.63;3.33;;;9.40;98.20;;;;;;4971754;28;20487;-82
2023/12/16 10:41:12;;;;;;;1.63;1.20;;;9.40;98.20;;;;;;4952900;28;20517;-80
2023/12/16 10:43:39;;;;;;;1.60;1.10;;;9.50;98.20;;;;;;4974295;28;20477;-81
2023/12/16 10:46:07;;;;;;;1.60;1.10;;;9.50;98.20;;;;;;4960611;28;20470;-83
2023/12/16 10:48:36;;;;;;;1.60;1.10;;;9.60;98.20;;;;;;4984682;28;20483;-80
2023/12/16 10:51:06;;;;;;;1.60;1.10;;;9.60;98.20;;;;;;4961918;28;20479;-80
2023/12/16 10:53:53;;;;;;;1.60;1.20;;;9.70;98.20;;;;;;4978865;28;20478;-80
2023/12/16 10:56:29;;;;;;;1.70;1.20;;;9.70;98.20;;;;;;4951304;28;20470;-81
2023/12/16 10:59:17;;;;;;;1.70;1.30;;;9.80;98.20;;;;;;4960987;28;22611;-84
2023/12/16 11:01:48;;;;;;;1.60;1.10;;;10.00;98.20;;;;;;4948174;28;20486;-84
2023/12/16 11:04:21;;;;;;;1.60;1.10;;;10.10;98.20;;;;;;4959778;28;20490;-82
2023/12/16 11:06:56;;;;;;;1.60;1.20;;;10.10;98.20;;;;;;4950372;28;20524;-81
2023/12/16 11:09:24;;;;;;;1.60;1.10;;;10.20;98.20;;;;;;4957660;28;20462;-82
2023/12/16 11:11:57;;;;;;;1.60;1.10;;;10.20;98.20;;;;;;4948324;28;20474;-80
2023/12/16 11:14:25;;;;;;;1.60;1.17;;;10.30;98.20;;;;;;4957479;28;20495;-82
2023/12/16 11:17:05;;;;;;;1.90;1.63;;;10.40;98.20;;;;;;4949219;28;20500;-80
2023/12/16 11:19:37;;;;;;;1.60;1.20;;;10.40;98.20;;;;;;4956414;28;20830;-81
2023/12/16 11:22:06;;;;;;;1.70;1.23;;;10.50;98.20;;;;;;4948120;28;20499;-80
2023/12/16 11:24:40;;;;;;;1.60;1.10;;;10.50;98.20;;;;;;4954327;28;20543;-80
2023/12/16 11:27:07;;;;;;;1.60;1.10;;;10.60;98.20;;;;;;4947797;28;20474;-81
2023/12/16 11:29:35;;;;;;;1.63;1.10;;;10.60;98.20;;;;;;4955858;28;20511;-81
2023/12/16 11:32:03;;;;;;;1.60;1.10;;;10.70;98.20;;;;;;4948360;28;20978;-81
2023/12/16 11:34:44;;;;;;;1.60;1.10;;;10.70;98.20;;;;;;4957693;28;20494;-80
2023/12/16 11:37:12;;;;;;;1.60;1.10;;;10.80;98.20;;;;;;4952433;28;20560;-80
2023/12/16 11:39:42;;;;;;;1.67;1.10;;;10.80;98.20;;;;;;4957286;28;20993;-81
2023/12/16 11:42:10;;;;;;;1.60;1.10;;;10.90;98.20;;;;;;4950569;28;20481;-83
2023/12/16 11:45:04;;;;;;;1.60;1.10;;;11.00;98.20;;;;;;4955222;28;21196;-81
2023/12/16 11:47:34;;;;;;;1.60;1.10;;;11.00;98.20;;;;;;4952524;28;20486;-80
2023/12/16 11:50:02;;;;;;;1.60;1.10;;;11.00;98.20;;;;;;4950891;28;20577;-81
2023/12/16 11:52:31;;;;;;;1.60;1.10;;;10.90;98.20;;;;;;4952552;28;20597;-80
2023/12/16 11:55:07;;;;;;;1.60;1.10;;;10.90;98.20;;;;;;4951786;28;20998;-81
2023/12/16 11:57:43;;;;;;;1.60;1.10;;;10.90;98.20;;;;;;4955733;28;20485;-83
2023/12/16 12:00:13;;;;;;;1.60;1.10;;;10.80;98.20;;;;;;4952021;28;20466;-81
2023/12/16 12:09:21;;;;;;;1.60;1.10;;;10.70;98.20;;;;;;4908153;28;20490;-81
2023/12/16 12:12:47;;;;;;;1.60;1.10;;;10.70;98.20;;;;;;4932838;28;21611;-82
2023/12/16 12:15:40;;;;;;;;;;;;;;;;;;;;;
2023/12/16 12:35:24;;;;;;;1.80;1.57;;;10.80;98.20;;;;;;4945571;28;20578;-82
2023/12/16 12:37:51;;;;;;;1.60;1.10;;;10.80;98.20;;;;;;4950105;28;20481;-82
2023/12/16 12:40:59;;;;;;;1.60;1.20;;;10.80;98.20;;;;;;4948356;28;20581;-81
2023/12/16 12:43:39;;;;;;;1.60;1.00;;;10.80;98.20;;;;;;4948275;28;20489;-81
2023/12/16 12:46:08;;;;;;;1.60;1.20;;;10.80;98.20;;;;;;4941646;28;20470;-81
2023/12/16 12:48:38;;;;;;;1.60;1.10;;;10.80;98.20;;;;;;4958742;28;20566;-81
2023/12/16 12:51:08;;;;;;;1.60;1.20;;;10.80;98.20;;;;;;4938110;28;20479;-80
2023/12/16 12:53:38;;;;;;;1.60;1.10;;;10.80;98.20;;;;;;4972376;28;20498;-81
2023/12/16 13:20:38;;;;;;;1.60;1.10;;;10.60;98.20;;;;;;4943545;28;20461;-80
2023/12/16 13:23:08;;;;;;;1.97;1.77;;;10.70;98.20;;;;;;4955680;28;20469;-81
2023/12/16 13:25:56;;;;;;;1.60;1.10;;;10.70;98.20;;;;;;4967060;28;20493;-82
2023/12/16 13:28:24;;;;;;;1.60;1.10;;;10.60;98.20;;;;;;4957759;28;20486;-80
2023/12/16 13:30:54;;;;;;;1.60;1.20;;;10.60;98.20;;;;;;4959099;28;20478;-81
2023/12/16 13:39:02;;;;;;;1.60;1.10;;;10.60;98.20;;;;;;4910352;28;20477;-80
2023/12/16 13:41:29;;;;;;;1.60;1.10;;;10.60;98.20;;;;;;4958074;28;20475;-80
2023/12/16 13:43:56;;;;;;;1.60;1.10;;;10.50;98.20;;;;;;4963978;28;20712;-81
2023/12/16 13:46:24;;;;;;;1.60;1.10;;;10.50;98.20;;;;;;4956859;28;20489;-81
2023/12/16 13:48:51;;;;;;;1.60;1.10;;;10.50;98.20;;;;;;4975600;28;20548;-80
2023/12/16 13:51:21;;;;;;;1.60;1.10;;;10.50;98.20;;;;;;4970047;28;20713;-80
2023/12/16 13:53:48;;;;;;;1.60;1.10;;;10.50;98.20;;;;;;4963120;28;20855;-81
2023/12/16 13:56:17;;;;;;;1.60;1.10;;;10.50;98.20;;;;;;4954486;28;20484;-81
2023/12/16 13:58:44;;;;;;;1.60;1.10;;;10.50;98.20;;;;;;4962778;28;20462;-80
2023/12/16 14:01:12;;;;;;;1.60;1.20;;;10.50;98.20;;;;;;4950511;28;20485;-80
2023/12/16 14:03:39;;;;;;;1.60;1.10;;;10.40;98.20;;;;;;4962356;28;20509;-81
2023/12/16 14:06:06;;;;;;;1.60;1.10;;;10.50;98.20;;;;;;4951080;28;20481;-80
2023/12/16 14:08:58;;;;;;;1.60;1.10;;;10.40;98.20;;;;;;4963954;28;20544;-80
2023/12/16 14:11:25;;;;;;;1.60;1.10;;;10.40;98.20;;;;;;4956567;28;20553;-79
2023/12/16 14:13:52;;;;;;;1.60;1.20;;;10.40;98.20;;;;;;4964988;28;20528;-80
2023/12/16 14:16:19;;;;;;;1.60;1.10;;;10.40;98.20;;;;;;4952989;28;20641;-80
2023/12/16 14:18:46;;;;;;;1.60;1.10;;;10.40;98.20;;;;;;4965118;28;20501;-80
2023/12/16 14:21:14;;;;;;;1.60;1.10;;;10.40;98.20;;;;;;4950662;28;20481;-81
2023/12/16 14:23:41;;;;;;;1.60;1.10;;;10.40;98.20;;;;;;4965005;28;20556;-79
2023/12/16 14:26:10;;;;;;;1.60;1.20;;;10.30;98.20;;;;;;4954746;28;20478;-80
2023/12/16 14:28:37;;;;;;;1.60;1.10;;;10.30;98.20;;;;;;4971128;28;20497;-80